createdAt,value
2018-06-03T00:00:21.204Z,21.43
2018-06-03T00:02:47.171Z,21.24
2018-06-03T00:05:13.152Z,21.00
2018-06-03T00:07:39.094Z,21.10
2018-06-03T00:10:05.021Z,21.12
2018-06-03T00:12:30.980Z,21.14
2018-06-03T00:14:56.939Z,21.02
2018-06-03T00:17:22.904Z,21.34
2018-06-03T00:19:48.858Z,21.75
2018-06-03T00:22:14.817Z,22.04
2018-06-03T00:24:40.784Z,21.53
2018-06-03T00:27:06.833Z,21.50
2018-06-03T00:29:32.898Z,21.21
2018-06-03T00:31:58.840Z,21.24
2018-06-03T00:34:24.871Z,21.42
2018-06-03T00:36:50.828Z,21.58
2018-06-03T00:39:16.883Z,21.54
2018-06-03T00:41:42.847Z,21.58
2018-06-03T00:44:09.063Z,21.67
2018-06-03T00:46:35.138Z,21.10
2018-06-03T00:49:01.282Z,21.26
2018-06-03T00:51:27.240Z,21.52
2018-06-03T00:53:53.236Z,21.42
2018-06-03T00:56:19.191Z,21.21
2018-06-03T00:58:45.137Z,21.51
2018-06-03T01:01:11.137Z,21.04
2018-06-03T01:03:37.102Z,21.34
2018-06-03T01:06:03.066Z,21.42
2018-06-03T01:08:29.037Z,21.56
2018-06-03T01:10:54.980Z,21.65
2018-06-03T01:13:20.952Z,21.58
2018-06-03T01:15:46.892Z,21.34
2018-06-03T01:18:12.858Z,21.67
2018-06-03T01:20:38.808Z,21.90
2018-06-03T01:23:04.753Z,21.85
2018-06-03T01:25:30.705Z,21.86
2018-06-03T01:27:56.664Z,21.80
2018-06-03T01:30:22.616Z,21.88
2018-06-03T01:32:48.571Z,21.99
2018-06-03T01:35:14.561Z,22.02
2018-06-03T01:37:40.517Z,22.01
2018-06-03T01:40:06.479Z,21.95
2018-06-03T01:42:32.854Z,21.91
2018-06-03T01:44:59.083Z,21.89
2018-06-03T01:47:25.332Z,22.21
2018-06-03T01:49:51.303Z,21.94
2018-06-03T01:52:17.271Z,21.80
2018-06-03T01:54:43.329Z,21.72
2018-06-03T01:57:09.392Z,21.68
2018-06-03T01:59:35.348Z,21.78
2018-06-03T02:02:01.360Z,21.87
2018-06-03T02:04:27.489Z,21.64
2018-06-03T02:06:53.624Z,21.25
2018-06-03T02:09:19.628Z,21.61
2018-06-03T02:11:45.813Z,21.71
2018-06-03T02:14:12.058Z,21.75
2018-06-03T02:16:38.320Z,21.20
2018-06-03T02:19:04.527Z,21.36
2018-06-03T02:21:30.670Z,21.85
2018-06-03T02:23:56.686Z,21.94
2018-06-03T02:26:22.657Z,21.58
2018-06-03T02:28:48.617Z,21.66
2018-06-03T02:31:14.563Z,21.73
2018-06-03T02:33:40.518Z,21.83
2018-06-03T02:36:06.471Z,21.92
2018-06-03T02:38:32.550Z,21.50
2018-06-03T02:40:58.509Z,21.37
2018-06-03T02:43:24.463Z,21.53
2018-06-03T02:45:50.621Z,21.27
2018-06-03T02:48:16.708Z,21.05
2018-06-03T02:50:42.711Z,21.04
2018-06-03T02:53:08.681Z,21.31
2018-06-03T02:55:34.875Z,21.26
2018-06-03T02:58:00.828Z,21.42
2018-06-03T03:00:26.758Z,21.31
2018-06-03T03:02:52.881Z,21.24
2018-06-03T03:05:18.851Z,21.09
2018-06-03T03:07:44.991Z,21.36
2018-06-03T03:10:11.083Z,21.29
2018-06-03T03:12:37.353Z,21.61
2018-06-03T03:15:03.494Z,21.80
2018-06-03T03:17:29.432Z,21.89
2018-06-03T03:19:55.425Z,21.66
2018-06-03T03:22:21.357Z,21.95
2018-06-03T03:24:47.511Z,21.88
2018-06-03T03:27:13.678Z,21.81
2018-06-03T03:29:39.822Z,21.36
2018-06-03T03:32:05.768Z,21.34
2018-06-03T03:34:31.705Z,21.74
2018-06-03T03:36:57.673Z,21.84
2018-06-03T03:39:23.615Z,21.80
2018-06-03T03:41:49.563Z,21.52
2018-06-03T03:44:15.494Z,21.58
2018-06-03T03:46:41.428Z,21.40
2018-06-03T03:49:07.397Z,21.27
2018-06-03T03:51:33.376Z,21.28
2018-06-03T03:53:59.331Z,21.35
2018-06-03T03:56:25.270Z,21.60
2018-06-03T03:58:51.224Z,21.35
2018-06-03T04:01:17.179Z,21.62
2018-06-03T04:03:43.151Z,21.73
2018-06-03T04:06:09.127Z,21.88
2018-06-03T04:08:35.107Z,21.79
2018-06-03T04:11:01.075Z,21.74
2018-06-03T04:13:27.014Z,21.70
2018-06-03T04:15:52.977Z,21.73
2018-06-03T04:18:18.927Z,21.66
2018-06-03T04:20:44.859Z,21.89
2018-06-03T04:23:10.824Z,21.90
2018-06-03T04:25:36.774Z,21.80
2018-06-03T04:28:02.814Z,22.05
2018-06-03T04:30:28.787Z,21.88
2018-06-03T04:32:54.745Z,21.94
2018-06-03T04:35:20.700Z,22.17
2018-06-03T04:37:46.629Z,22.28
2018-06-03T04:40:12.585Z,22.10
2018-06-03T04:42:38.549Z,22.01
2018-06-03T04:45:04.500Z,22.17
2018-06-03T04:47:30.457Z,22.42
2018-06-03T04:49:56.419Z,22.39
2018-06-03T04:52:22.388Z,22.54
2018-06-03T04:54:48.357Z,22.44
2018-06-03T04:57:14.306Z,22.52
2018-06-03T04:59:40.277Z,22.42
2018-06-03T05:02:06.223Z,22.49
2018-06-03T05:04:32.177Z,22.45
2018-06-03T05:06:58.107Z,22.50
2018-06-03T05:09:24.098Z,22.26
2018-06-03T05:11:50.034Z,22.47
2018-06-03T05:14:15.965Z,22.59
2018-06-03T05:16:41.896Z,22.35
2018-06-03T05:19:07.834Z,22.55
2018-06-03T05:21:33.793Z,22.70
2018-06-03T05:23:59.724Z,22.74
2018-06-03T05:26:25.656Z,22.86
2018-06-03T05:28:51.610Z,22.93
2018-06-03T05:33:50.005Z,23.27
2018-06-03T05:36:15.987Z,23.33
2018-06-03T05:38:41.965Z,23.77
2018-06-03T05:41:07.914Z,24.18
2018-06-03T05:43:33.876Z,23.94
2018-06-03T05:45:59.855Z,23.87
2018-06-03T05:48:25.824Z,23.66
2018-06-03T05:50:51.803Z,24.13
2018-06-03T05:53:17.775Z,23.93
2018-06-03T05:55:43.753Z,24.03
2018-06-03T05:58:09.724Z,24.40
2018-06-03T06:00:35.694Z,24.05
2018-06-03T06:03:01.624Z,23.82
2018-06-03T06:05:27.601Z,23.51
2018-06-03T06:07:53.901Z,23.57
2018-06-03T06:10:20.000Z,23.38
2018-06-03T06:12:45.980Z,23.19
2018-06-03T06:15:11.968Z,23.19
2018-06-03T06:17:37.940Z,23.29
2018-06-03T06:20:04.078Z,23.37
2018-06-03T06:22:30.021Z,23.53
2018-06-03T06:24:55.990Z,23.48
2018-06-03T06:27:21.932Z,23.25
2018-06-03T06:29:48.984Z,23.42
2018-06-03T06:32:14.936Z,23.20
2018-06-03T06:34:40.874Z,23.36
2018-06-03T06:37:06.827Z,23.14
2018-06-03T06:39:32.796Z,23.00
2018-06-03T06:41:58.760Z,23.01
2018-06-03T06:44:24.752Z,23.33
2018-06-03T06:46:50.729Z,22.99
2018-06-03T06:49:16.692Z,23.27
2018-06-03T06:51:42.680Z,23.30
2018-06-03T06:54:08.668Z,23.24
2018-06-03T06:56:34.616Z,23.07
2018-06-03T06:59:00.587Z,23.17
2018-06-03T07:01:26.587Z,23.21
2018-06-03T07:03:52.592Z,23.18
2018-06-03T07:06:18.557Z,23.36
2018-06-03T07:08:44.493Z,23.37
2018-06-03T07:11:10.455Z,23.49
2018-06-03T07:13:36.416Z,23.30
2018-06-03T07:16:02.395Z,23.49
2018-06-03T07:18:28.367Z,23.61
2018-06-03T07:20:54.311Z,23.55
2018-06-03T07:23:20.262Z,23.51
2018-06-03T07:25:46.240Z,23.57
2018-06-03T07:28:12.198Z,23.30
2018-06-03T07:30:38.147Z,23.49
2018-06-03T07:33:04.103Z,23.48
2018-06-03T07:35:30.126Z,23.41
2018-06-03T07:37:56.103Z,23.54
2018-06-03T07:40:22.141Z,23.66
2018-06-03T07:42:48.169Z,23.65
2018-06-03T07:45:14.115Z,23.75
2018-06-03T07:47:40.141Z,23.69
2018-06-03T07:50:06.117Z,23.62
2018-06-03T07:52:32.083Z,23.49
2018-06-03T07:54:58.056Z,23.71
2018-06-03T07:57:24.033Z,23.63
2018-06-03T07:59:50.120Z,23.60
2018-06-03T08:02:16.101Z,23.25
2018-06-03T08:04:42.049Z,23.18
2018-06-03T08:07:08.028Z,23.54
2018-06-03T08:09:34.104Z,23.55
2018-06-03T08:12:00.086Z,23.56
2018-06-03T08:14:26.053Z,23.64
2018-06-03T08:16:52.021Z,23.48
2018-06-03T08:19:17.982Z,23.40
2018-06-03T08:21:43.960Z,23.46
2018-06-03T08:24:10.057Z,23.35
2018-06-03T08:26:36.010Z,23.29
2018-06-03T08:29:01.955Z,23.43
2018-06-03T08:31:27.974Z,23.51
2018-06-03T08:33:53.913Z,23.68
2018-06-03T08:36:19.856Z,23.66
2018-06-03T08:38:45.802Z,23.72
2018-06-03T08:41:11.738Z,23.61
2018-06-03T08:43:37.694Z,23.67
2018-06-03T08:46:03.739Z,23.58
2018-06-03T08:48:29.693Z,23.47
2018-06-03T08:50:55.626Z,23.55
2018-06-03T08:53:21.601Z,23.54
2018-06-03T08:55:47.559Z,23.35
2018-06-03T08:58:13.545Z,23.51
2018-06-03T09:00:39.508Z,23.55
2018-06-03T09:03:05.476Z,23.55
2018-06-03T09:05:31.477Z,23.81
2018-06-03T09:07:57.595Z,23.63
2018-06-03T09:10:23.553Z,23.59
2018-06-03T09:12:49.547Z,23.56
2018-06-03T09:15:15.562Z,23.70
2018-06-03T09:17:41.533Z,23.82
2018-06-03T09:20:07.491Z,23.71
2018-06-03T09:22:33.577Z,23.77
2018-06-03T09:24:59.535Z,23.58
2018-06-03T09:27:25.629Z,23.72
2018-06-03T09:29:51.593Z,23.73
2018-06-03T09:32:17.603Z,23.74
2018-06-03T09:34:43.669Z,23.61
2018-06-03T09:37:09.624Z,23.57
2018-06-03T09:39:35.604Z,23.70
2018-06-03T09:42:01.570Z,23.64
2018-06-03T09:44:27.624Z,23.67
2018-06-03T09:46:53.547Z,23.76
2018-06-03T09:49:19.535Z,23.71
2018-06-03T09:51:45.512Z,23.92
2018-06-03T09:54:11.545Z,23.63
2018-06-03T09:56:37.689Z,23.69
2018-06-03T09:59:03.717Z,23.84
2018-06-03T10:01:29.683Z,23.90
2018-06-03T10:03:55.640Z,24.02
2018-06-03T10:06:21.616Z,23.91
2018-06-03T10:08:47.616Z,23.99
2018-06-03T10:11:13.603Z,23.91
2018-06-03T10:13:41.217Z,24.08
2018-06-03T10:16:07.360Z,24.11
2018-06-03T10:18:33.279Z,24.16
2018-06-03T10:20:59.240Z,24.15
2018-06-03T10:23:25.206Z,24.15
2018-06-03T10:25:51.166Z,23.95
2018-06-03T10:28:17.140Z,24.04
2018-06-03T10:30:43.175Z,23.97
2018-06-03T10:33:09.179Z,24.07
2018-06-03T10:35:35.155Z,24.08
2018-06-03T10:38:01.200Z,24.22
2018-06-03T10:40:27.159Z,24.24
2018-06-03T10:42:53.160Z,23.94
2018-06-03T10:45:19.093Z,24.10
2018-06-03T10:47:45.150Z,24.10
2018-06-03T10:50:11.123Z,24.26
2018-06-03T10:52:37.209Z,24.42
2018-06-03T10:55:03.194Z,24.50
2018-06-03T10:57:29.171Z,24.31
2018-06-03T10:59:55.126Z,24.38
2018-06-03T11:02:21.094Z,24.49
2018-06-03T11:04:47.076Z,24.39
2018-06-03T11:07:13.050Z,24.47
2018-06-03T11:09:39.014Z,24.61
2018-06-03T11:12:05.005Z,24.61
2018-06-03T11:14:31.657Z,24.54
2018-06-03T11:16:57.591Z,24.56
2018-06-03T11:19:23.920Z,24.53
2018-06-03T11:21:49.915Z,24.40
2018-06-03T11:24:17.049Z,24.40
2018-06-03T11:26:43.029Z,24.42
2018-06-03T11:29:09.025Z,24.42
2018-06-03T11:31:35.021Z,24.39
2018-06-03T11:34:01.118Z,24.35
2018-06-03T11:36:27.065Z,24.45
2018-06-03T11:38:53.027Z,24.48
2018-06-03T11:41:19.150Z,24.49
2018-06-03T11:43:45.218Z,24.36
2018-06-03T11:46:11.359Z,24.51
2018-06-03T11:48:37.400Z,24.46
2018-06-03T11:51:03.395Z,24.51
2018-06-03T11:53:29.457Z,24.52
2018-06-03T11:55:55.726Z,24.42
2018-06-03T11:58:21.720Z,24.38
2018-06-03T12:00:47.667Z,24.40
2018-06-03T12:03:15.101Z,24.43
2018-06-03T12:05:41.087Z,24.50
2018-06-03T12:08:09.168Z,24.56
2018-06-03T12:10:35.162Z,24.58
2018-06-03T12:13:03.178Z,24.52
2018-06-03T12:15:31.375Z,24.55
2018-06-03T12:17:57.587Z,24.55
2018-06-03T12:20:23.711Z,24.51
2018-06-03T12:22:49.677Z,24.47
2018-06-03T12:25:15.693Z,24.55
2018-06-03T12:27:41.783Z,24.48
2018-06-03T12:30:07.775Z,24.43
2018-06-03T12:32:33.792Z,24.45
2018-06-03T12:34:59.827Z,24.33
2018-06-03T12:37:25.811Z,24.37
2018-06-03T12:39:51.769Z,24.40
2018-06-03T12:42:17.780Z,24.53
2018-06-03T12:44:43.850Z,24.49
2018-06-03T12:47:09.813Z,24.52
2018-06-03T12:49:35.873Z,24.48
2018-06-03T12:52:01.833Z,24.50
2018-06-03T12:54:27.888Z,24.50
2018-06-03T12:56:53.933Z,24.49
2018-06-03T12:59:19.934Z,24.51
2018-06-03T13:01:45.971Z,24.51
2018-06-03T13:04:12.009Z,24.51
2018-06-03T13:06:38.037Z,24.54
2018-06-03T13:09:04.029Z,24.58
2018-06-03T13:11:30.069Z,24.55
2018-06-03T13:13:56.008Z,24.62
2018-06-03T13:16:22.024Z,24.72
2018-06-03T13:18:48.078Z,24.66
2018-06-03T13:21:14.179Z,24.71
2018-06-03T13:23:40.152Z,24.65
2018-06-03T13:26:06.105Z,24.67
2018-06-03T13:28:32.116Z,24.72
2018-06-03T13:30:58.191Z,24.72
2018-06-03T13:33:24.193Z,24.74
2018-06-03T13:35:50.195Z,24.74
2018-06-03T13:38:16.255Z,24.73
2018-06-03T13:40:42.286Z,24.71
2018-06-03T13:43:08.269Z,24.78
2018-06-03T13:45:34.324Z,24.92
2018-06-03T13:48:00.350Z,24.87
2018-06-03T13:50:26.367Z,24.86
2018-06-03T13:52:52.389Z,24.98
2018-06-03T13:55:18.379Z,24.93
2018-06-03T13:57:44.453Z,24.86
2018-06-03T14:00:10.430Z,24.91
2018-06-03T14:02:36.500Z,24.87
2018-06-03T14:05:02.486Z,24.98
2018-06-03T14:07:29.429Z,25.02
2018-06-03T14:09:55.377Z,24.97
2018-06-03T14:12:21.426Z,24.87
2018-06-03T14:14:47.388Z,24.94
2018-06-03T14:17:13.460Z,24.99
2018-06-03T14:19:39.403Z,25.13
2018-06-03T14:22:05.389Z,25.01
2018-06-03T14:24:31.408Z,24.89
2018-06-03T14:26:57.416Z,24.85
2018-06-03T14:29:23.430Z,25.03
2018-06-03T14:31:49.468Z,25.03
2018-06-03T14:34:15.481Z,24.95
2018-06-03T14:36:41.447Z,24.84
2018-06-03T14:39:07.438Z,24.79
2018-06-03T14:41:33.398Z,24.80
2018-06-03T14:43:59.382Z,24.82
2018-06-03T14:46:25.410Z,24.80
2018-06-03T14:48:51.438Z,24.72
2018-06-03T14:51:17.455Z,24.28
2018-06-03T14:53:43.472Z,23.99
2018-06-03T14:56:09.514Z,23.60
2018-06-03T14:58:35.469Z,23.40
2018-06-03T15:01:01.501Z,23.31
2018-06-03T15:03:27.548Z,23.15
2018-06-03T15:05:53.559Z,23.15
2018-06-03T15:08:19.500Z,23.09
2018-06-03T15:10:45.490Z,23.17
2018-06-03T15:13:11.511Z,23.18
2018-06-03T15:15:37.568Z,23.05
2018-06-03T15:18:03.573Z,22.89
2018-06-03T15:20:29.548Z,22.89
2018-06-03T15:22:55.533Z,22.99
2018-06-03T15:25:21.572Z,23.09
2018-06-03T15:27:47.625Z,23.10
2018-06-03T15:30:13.639Z,23.00
2018-06-03T15:32:39.593Z,23.34
2018-06-03T15:35:05.577Z,23.10
2018-06-03T15:37:31.599Z,22.96
2018-06-03T15:39:57.642Z,22.86
2018-06-03T15:42:23.677Z,22.94
2018-06-03T15:44:49.616Z,22.99
2018-06-03T15:47:15.624Z,23.02
2018-06-03T15:49:41.631Z,22.83
2018-06-03T15:52:07.676Z,22.77
2018-06-03T15:54:33.691Z,22.82
2018-06-03T15:56:59.674Z,22.68
2018-06-03T15:59:25.635Z,22.74
2018-06-03T16:01:51.573Z,22.97
2018-06-03T16:04:17.593Z,23.02
2018-06-03T16:06:43.622Z,22.86
2018-06-03T16:09:09.656Z,22.89
2018-06-03T16:11:35.650Z,22.95
2018-06-03T16:14:01.690Z,22.91
2018-06-03T16:16:27.714Z,22.98
2018-06-03T16:18:53.734Z,23.01
2018-06-03T16:21:19.701Z,23.14
2018-06-03T16:23:45.703Z,22.95
2018-06-03T16:26:11.734Z,23.09
2018-06-03T16:28:37.726Z,23.01
2018-06-03T16:31:03.781Z,23.01
2018-06-03T16:33:29.720Z,22.94
2018-06-03T16:35:55.713Z,22.87
2018-06-03T16:38:21.711Z,22.93
2018-06-03T16:40:47.753Z,22.82
2018-06-03T16:43:13.783Z,22.97
2018-06-03T16:45:39.821Z,23.14
2018-06-03T16:48:05.892Z,23.01
2018-06-03T16:50:31.858Z,23.09
2018-06-03T16:52:57.816Z,23.07
2018-06-03T16:55:23.794Z,23.01
2018-06-03T16:57:49.823Z,23.01
2018-06-03T17:00:15.785Z,23.06
2018-06-03T17:02:41.750Z,23.10
2018-06-03T17:05:07.760Z,23.13
2018-06-03T17:07:33.863Z,23.11
2018-06-03T17:09:59.819Z,22.85
2018-06-03T17:12:25.813Z,22.98
2018-06-03T17:14:51.817Z,22.98
2018-06-03T17:17:17.815Z,23.05
2018-06-03T17:19:43.793Z,23.08
2018-06-03T17:22:09.885Z,23.19
2018-06-03T17:24:35.868Z,23.06
2018-06-03T17:27:01.810Z,23.01
2018-06-03T17:29:27.811Z,23.01
2018-06-03T17:31:53.833Z,23.13
2018-06-03T17:34:19.908Z,23.11
2018-06-03T17:36:45.832Z,22.99
2018-06-03T17:39:11.893Z,22.98
2018-06-03T17:41:37.877Z,23.03
2018-06-03T17:44:03.957Z,23.04
2018-06-03T17:46:29.941Z,23.03
2018-06-03T17:48:56.002Z,23.02
2018-06-03T17:51:21.938Z,23.13
2018-06-03T17:53:47.907Z,23.01
2018-06-03T17:56:13.848Z,22.94
2018-06-03T17:58:40.250Z,22.97
2018-06-03T18:01:06.322Z,22.96
2018-06-03T18:03:32.370Z,22.90
2018-06-03T18:05:58.351Z,22.84
2018-06-03T18:08:24.383Z,22.76
2018-06-03T18:10:50.414Z,22.87
2018-06-03T18:13:16.427Z,23.18
2018-06-03T18:15:42.473Z,23.58
2018-06-03T19:21:09.616Z,23.60
2018-06-03T19:23:35.672Z,23.23
2018-06-03T19:26:01.739Z,23.28
2018-06-03T19:28:27.721Z,23.14
2018-06-03T19:30:53.810Z,23.13
2018-06-03T19:33:19.782Z,23.11
2018-06-03T19:35:45.810Z,23.13
2018-06-03T19:38:11.847Z,23.01
2018-06-03T19:40:37.791Z,23.21
2018-06-03T19:43:03.764Z,23.24
2018-06-03T19:45:29.717Z,23.10
2018-06-03T19:47:55.644Z,23.20
2018-06-03T19:50:21.590Z,23.42
2018-06-03T19:52:47.546Z,23.19
2018-06-03T19:55:13.509Z,22.88
2018-06-03T19:57:39.440Z,22.92
2018-06-03T20:00:05.424Z,23.00
2018-06-03T20:02:31.376Z,23.13
2018-06-03T20:04:57.331Z,23.19
2018-06-03T20:07:23.262Z,23.06
2018-06-03T20:09:49.214Z,23.00
2018-06-03T20:12:15.186Z,23.05
2018-06-03T20:14:41.127Z,22.98
2018-06-03T20:17:07.184Z,23.17
2018-06-03T20:19:33.153Z,23.11
2018-06-03T20:21:59.095Z,23.03
2018-06-03T20:24:25.117Z,23.14
2018-06-03T20:26:51.072Z,22.89
2018-06-03T20:29:17.021Z,22.77
2018-06-03T20:31:43.017Z,22.60
2018-06-03T20:34:09.025Z,22.55
2018-06-03T20:36:34.982Z,22.80
2018-06-03T20:39:03.153Z,23.00
2018-06-03T20:41:29.131Z,22.82
2018-06-03T20:43:55.178Z,22.44
2018-06-03T20:46:21.173Z,22.48
2018-06-03T20:48:47.113Z,22.66
2018-06-03T20:51:13.074Z,22.58
2018-06-03T20:53:39.020Z,22.81
2018-06-03T20:56:05.019Z,22.89
2018-06-03T20:58:31.043Z,22.90
2018-06-03T21:00:57.006Z,22.87
2018-06-03T21:03:22.968Z,22.90
2018-06-03T21:05:48.918Z,22.65
2018-06-03T21:08:14.876Z,22.62
2018-06-03T21:10:40.820Z,22.72
2018-06-03T21:13:06.775Z,22.31
2018-06-03T21:15:32.762Z,22.44
2018-06-03T21:17:58.829Z,22.58
2018-06-03T21:20:24.775Z,22.80
2018-06-03T21:22:50.723Z,22.55
2018-06-03T21:25:16.680Z,22.77
2018-06-03T21:27:42.636Z,22.60
2018-06-03T21:30:08.592Z,22.52
2018-06-03T21:32:34.536Z,22.57
2018-06-03T21:35:00.452Z,22.81
2018-06-03T21:37:26.495Z,22.74
2018-06-03T21:39:52.429Z,22.89
2018-06-03T21:42:18.368Z,22.93
2018-06-03T21:44:44.315Z,22.83
2018-06-03T21:47:10.283Z,22.88
2018-06-03T21:49:36.228Z,22.49
2018-06-03T21:52:02.211Z,22.33
2018-06-03T21:54:28.149Z,22.66
2018-06-03T21:56:54.116Z,22.44
2018-06-03T21:59:20.078Z,22.58
2018-06-03T22:01:46.034Z,22.69
2018-06-03T22:04:11.965Z,22.70
2018-06-03T22:06:37.904Z,22.19
2018-06-03T22:09:03.907Z,22.28
2018-06-03T22:11:29.844Z,22.36
2018-06-03T22:13:55.803Z,22.39
2018-06-03T22:16:21.850Z,22.26
2018-06-03T22:18:47.789Z,22.23
2018-06-03T22:21:13.742Z,22.25
2018-06-03T22:23:39.684Z,22.37
2018-06-03T22:26:05.628Z,22.71
2018-06-03T22:28:31.564Z,22.29
2018-06-03T22:30:57.514Z,22.48
2018-06-03T22:33:23.438Z,22.62
2018-06-03T22:35:49.385Z,22.49
2018-06-03T22:38:15.335Z,22.21
2018-06-03T22:40:41.292Z,21.83
2018-06-03T22:43:07.231Z,21.53
2018-06-03T22:45:33.194Z,21.54
2018-06-03T22:47:59.116Z,22.23
2018-06-03T22:50:25.047Z,22.34
2018-06-03T22:52:50.972Z,21.49
2018-06-03T22:55:16.935Z,22.07
2018-06-03T22:57:42.895Z,22.08
2018-06-03T23:00:08.844Z,21.86
2018-06-03T23:02:34.797Z,22.09
2018-06-03T23:05:00.737Z,21.87
2018-06-03T23:07:26.692Z,21.96
2018-06-03T23:09:52.646Z,21.55
2018-06-03T23:12:18.617Z,21.97
2018-06-03T23:14:44.537Z,22.07
2018-06-03T23:17:10.493Z,21.89
2018-06-03T23:19:36.442Z,22.02
2018-06-03T23:22:02.385Z,22.16
2018-06-03T23:24:28.332Z,22.09
2018-06-03T23:26:54.286Z,21.57
2018-06-03T23:29:20.237Z,21.46
2018-06-03T23:31:46.189Z,21.65
2018-06-03T23:34:12.127Z,21.79
2018-06-03T23:36:39.263Z,21.74
2018-06-03T23:39:05.224Z,21.55
2018-06-03T23:41:31.148Z,21.89
2018-06-03T23:43:57.107Z,21.51
2018-06-03T23:46:23.059Z,21.25
2018-06-03T23:48:49.015Z,20.93
2018-06-03T23:51:15.024Z,20.99
2018-06-03T23:53:40.978Z,21.06
2018-06-03T23:56:06.914Z,21.27
2018-06-03T23:58:32.861Z,21.44
